Time;durP1;ratioP1;P1;durP2;ratioP2;P2;SDS_P1;SDS_P2;PMS_P1;PMS_P2;Temp;Humidity;BMP_temperature;BMP_pressure;BME280_temperature;BME280_humidity;BME280_pressure;Samples;Min_cycle;Max_cycle;Signal;HPM_P1;HPM_P2
2022/11/05 00:09:28;;;;;;;20.88;8.05;;;8.30;99.90;;;7.43;100.00;101727.75;4102689;29;20046;-84
2022/11/05 00:10:17;;;;;;;14.23;6.18;;;8.60;99.90;;;7.65;100.00;101706.81;4089403;29;20039;-84
2022/11/05 00:16:57;;;;;;;14.63;6.18;;;8.40;99.90;;;7.55;100.00;101700.59;4089776;29;20092;-85
2022/11/05 00:19:06;;;;;;;12.73;5.65;;;8.40;99.90;;;7.54;100.00;101698.91;4089088;29;20039;-85
2022/11/05 00:25:12;;;;;;;13.15;6.45;;;8.40;99.90;;;7.49;100.00;101700.19;4072806;29;20028;-84
2022/11/05 00:26:01;;;;;;;13.05;6.10;;;8.40;99.90;;;7.42;100.00;101705.06;4088859;29;20035;-84
2022/11/05 00:28:03;;;;;;;16.70;6.70;;;8.30;99.90;;;7.39;100.00;101707.91;4088837;29;20028;-85
2022/11/05 00:30:05;;;;;;;17.40;7.03;;;8.30;99.90;;;7.43;100.00;101705.91;4088475;29;20296;-85
2022/11/05 00:32:06;;;;;;;15.55;7.63;;;8.30;99.90;;;7.40;100.00;101691.22;4072322;29;20020;-85
2022/11/05 00:34:06;;;;;;;17.75;8.93;;;8.30;99.90;;;7.44;100.00;101703.16;4072711;29;20040;-84
2022/11/05 00:36:09;;;;;;;15.75;9.25;;;8.30;99.90;;;7.46;100.00;101706.50;4072635;29;20028;-85
2022/11/05 00:38:10;;;;;;;12.45;8.63;;;8.30;99.90;;;7.45;100.00;101704.84;4088253;29;20435;-85
2022/11/05 00:40:13;;;;;;;12.30;7.15;;;8.30;99.90;;;7.46;100.00;101701.25;4072480;29;20076;-85
2022/11/05 00:49:28;;;;;;;14.98;7.22;;;8.40;99.90;;;7.55;100.00;101710.25;4101630;29;20045;-84
2022/11/05 00:49:29;;;;;;;15.80;6.90;;;8.40;99.90;;;7.57;100.00;101709.19;4089385;29;20035;-84
2022/11/05 00:51:30;;;;;;;13.35;6.10;;;8.40;99.90;;;7.59;100.00;101707.28;4089245;29;20028;-85
2022/11/05 00:53:31;;;;;;;12.80;6.53;;;8.40;99.90;;;7.61;100.00;101705.38;4104113;29;20038;-85
2022/11/05 00:55:41;;;;;;;12.15;5.88;;;8.50;99.90;;;7.65;100.00;101703.34;4104151;29;20039;-84
2022/11/05 00:57:42;;;;;;;17.10;6.47;;;8.50;99.90;;;7.64;100.00;101694.66;4088202;29;20032;-84
2022/11/05 00:59:43;;;;;;;11.98;5.43;;;8.50;99.90;;;7.61;100.00;101687.00;4103900;29;20034;-84
2022/11/05 01:01:44;;;;;;;9.65;5.63;;;8.50;99.90;;;7.69;100.00;101695.16;4089100;29;20058;-84
2022/11/05 01:03:44;;;;;;;6.32;4.68;;;8.60;99.90;;;7.68;100.00;101684.75;4071673;29;20036;-84
2022/11/05 01:05:49;;;;;;;9.57;4.65;;;8.50;99.90;;;7.65;100.00;101674.47;4088836;29;20020;-84
2022/11/05 01:07:52;;;;;;;9.35;4.28;;;8.50;99.90;;;7.61;100.00;101676.50;4103793;29;20422;-84
2022/11/05 01:09:53;;;;;;;8.90;4.37;;;8.50;99.90;;;7.59;100.00;101680.16;4087804;29;20031;-84
2022/11/05 01:11:54;;;;;;;10.95;4.35;;;8.50;99.90;;;7.59;100.00;101682.78;4102870;29;20495;-85
2022/11/05 01:13:55;;;;;;;8.25;4.38;;;8.50;99.90;;;7.56;100.00;101680.41;4089176;29;20050;-85
2022/11/05 01:15:56;;;;;;;5.47;3.85;;;8.40;99.90;;;7.57;100.00;101682.94;4103472;29;20023;-84
2022/11/05 01:17:57;;;;;;;8.98;4.25;;;8.40;99.90;;;7.57;100.00;101682.94;4103549;29;20050;-85
2022/11/05 01:19:58;;;;;;;10.23;4.20;;;8.40;99.90;;;7.54;100.00;101682.31;4088981;29;20032;-85
2022/11/05 01:21:59;;;;;;;8.27;4.47;;;8.40;99.90;;;7.56;100.00;101683.88;4088900;29;20032;-85
2022/11/05 01:24:01;;;;;;;8.25;4.72;;;8.40;99.90;;;7.58;100.00;101678.50;4103321;29;20046;-85
2022/11/05 01:26:02;;;;;;;13.30;5.70;;;8.40;99.90;;;7.58;100.00;101665.38;4087802;29;20056;-85
2022/11/05 01:28:03;;;;;;;12.15;4.78;;;8.50;99.90;;;7.64;100.00;101668.41;4087604;29;20027;-84
2022/11/05 01:30:07;;;;;;;8.38;4.30;;;8.50;99.90;;;7.66;100.00;101674.38;4103361;29;20082;-84
2022/11/05 01:32:08;;;;;;;13.63;4.28;;;8.50;99.90;;;7.65;100.00;101664.81;4071519;29;20091;-85
2022/11/05 01:34:09;;;;;;;12.15;4.07;;;8.50;99.90;;;7.68;100.00;101661.09;4088639;29;20071;-84
2022/11/05 01:36:10;;;;;;;11.60;3.97;;;8.60;99.90;;;7.69;100.00;101668.88;4103395;29;20031;-84
2022/11/05 01:38:10;;;;;;;8.90;4.05;;;8.60;99.90;;;7.74;100.00;101666.75;4087458;29;20166;-84
2022/11/05 01:40:21;;;;;;;6.00;3.00;;;8.60;99.90;;;7.79;100.00;101672.47;4088555;29;20027;-84
2022/11/05 01:42:25;;;;;;;8.57;3.90;;;8.60;99.90;;;7.79;100.00;101671.66;4071675;29;20043;-83
2022/11/05 01:45:01;;;;;;;11.73;4.60;;;8.70;99.90;;;7.79;100.00;101669.03;4087352;29;20027;-84
2022/11/05 01:47:01;;;;;;;16.02;3.63;;;8.70;99.90;;;7.79;100.00;101669.03;4102951;29;20027;-84
2022/11/05 01:49:32;;;;;;;10.43;3.30;;;8.70;99.90;;;7.85;100.00;101675.63;4087453;29;20028;-84
2022/11/05 01:51:33;;;;;;;13.15;4.72;;;8.70;99.90;;;7.86;100.00;101672.00;4100633;29;20036;-85
2022/11/05 01:53:48;;;;;;;10.48;3.58;;;8.70;99.90;;;7.90;100.00;101678.72;4087112;29;20035;-84
2022/11/05 01:56:18;;;;;;;10.15;3.13;;;8.80;99.90;;;7.92;100.00;101679.44;4092082;29;20035;-84
2022/11/05 01:58:24;;;;;;;7.28;3.20;;;8.80;99.90;;;7.93;100.00;101668.81;4101955;29;20090;-84
2022/11/05 02:00:26;;;;;;;10.05;3.45;;;8.80;99.90;;;8.00;100.00;101684.97;4103053;29;20079;-84
2022/11/05 02:02:29;;;;;;;12.98;3.58;;;8.90;99.90;;;7.96;100.00;101673.00;4102824;29;20055;-84
2022/11/05 02:04:47;;;;;;;9.15;3.53;;;8.90;99.90;;;8.05;100.00;101680.19;4088091;29;20523;-84
2022/11/05 02:06:47;;;;;;;9.98;4.65;;;8.90;99.90;;;8.09;100.00;101681.63;4101728;29;20487;-85
2022/11/05 02:09:06;;;;;;;11.57;4.30;;;9.00;99.90;;;8.15;100.00;101686.44;4087066;29;20059;-84
2022/11/05 02:11:07;;;;;;;7.82;3.28;;;9.00;99.90;;;8.15;100.00;101687.25;4088151;29;20024;-84
2022/11/05 02:13:08;;;;;;;9.50;3.15;;;9.00;99.90;;;8.15;100.00;101683.81;4102977;29;20033;-84
2022/11/05 02:15:22;;;;;;;6.97;2.67;;;9.00;99.90;;;8.18;100.00;101681.75;4087084;29;20028;-84
2022/11/05 02:18:06;;;;;;;7.80;2.85;;;9.00;99.90;;;8.16;100.00;101682.81;4087968;29;20487;-85
2022/11/05 02:21:00;;;;;;;12.30;3.83;;;9.00;99.90;;;8.16;100.00;101669.69;4084998;29;20035;-85
2022/11/05 02:23:16;;;;;;;8.30;3.17;;;9.10;99.90;;;8.22;100.00;101669.22;4101282;29;20031;-84
2022/11/05 02:25:38;;;;;;;11.20;2.63;;;9.10;99.90;;;8.25;100.00;101676.88;4102774;28;20028;-84
2022/11/05 02:27:48;;;;;;;9.95;2.90;;;9.10;99.90;;;8.23;100.00;101677.00;4088198;29;20043;-85
2022/11/05 02:30:24;;;;;;;4.35;2.63;;;9.10;99.90;;;8.18;100.00;101663.34;4102502;29;20063;-84
2022/11/05 02:32:53;;;;;;;5.50;2.30;;;9.10;99.90;;;8.21;100.00;101673.63;4086533;29;20032;-84
2022/11/05 02:35:36;;;;;;;6.03;2.33;;;9.10;99.90;;;8.19;100.00;101661.56;4071538;29;20040;-84
2022/11/05 02:37:42;;;;;;;3.97;2.50;;;9.00;99.90;;;8.20;100.00;101658.84;4065632;29;20044;-84
2022/11/05 02:39:52;;;;;;;4.95;2.05;;;9.00;99.90;;;8.22;100.00;101666.59;4088104;29;20389;-84
2022/11/05 02:42:23;;;;;;;5.13;2.47;;;9.10;99.90;;;8.21;100.00;101662.31;4088149;29;20027;-84
2022/11/05 02:44:38;;;;;;;5.18;1.85;;;9.00;99.90;;;8.22;100.00;101659.53;4087047;29;20066;-85
2022/11/05 02:46:57;;;;;;;6.78;2.35;;;9.10;99.90;;;8.20;100.00;101668.50;4086523;29;20027;-85
2022/11/05 02:49:09;;;;;;;3.50;2.03;;;9.00;99.90;;;8.17;100.00;101666.13;4088137;29;20032;-84
2022/11/05 02:51:16;;;;;;;5.75;2.20;;;9.00;99.90;;;8.16;100.00;101664.44;4087065;29;20038;-85
2022/11/05 02:53:29;;;;;;;8.65;2.00;;;9.00;99.90;;;8.15;100.00;101654.91;4087816;29;20043;-85
2022/11/05 02:55:54;;;;;;;10.15;3.03;;;9.00;99.90;;;8.14;100.00;101650.59;4071310;29;20115;-85
2022/11/05 02:57:55;;;;;;;7.70;2.60;;;9.00;99.90;;;8.14;100.00;101655.84;4086910;29;20119;-85
2022/11/05 03:00:26;;;;;;;5.85;2.22;;;9.00;99.90;;;8.17;100.00;101650.34;4087901;29;20388;-85
2022/11/05 03:02:27;;;;;;;7.50;2.17;;;9.00;99.90;;;8.18;100.00;101652.03;4086638;29;20400;-85
2022/11/05 03:04:29;;;;;;;5.07;1.90;;;9.00;99.90;;;8.14;100.00;101640.06;4087772;29;20119;-85
2022/11/05 03:07:01;;;;;;;3.00;1.77;;;9.00;99.90;;;8.19;100.00;101653.69;4086804;29;20503;-85
2022/11/05 03:09:22;;;;;;;5.82;2.40;;;9.00;99.90;;;8.21;100.00;101644.72;4087676;29;20039;-85
2022/11/05 03:11:28;;;;;;;6.07;2.78;;;9.00;99.90;;;8.20;100.00;101655.38;4087938;29;20781;-84
2022/11/05 03:14:26;;;;;;;4.97;2.40;;;9.10;99.90;;;8.18;100.00;101649.41;4070734;29;20043;-85
2022/11/05 03:16:47;;;;;;;5.38;2.10;;;9.10;99.90;;;8.18;100.00;101637.06;4073100;29;20076;-85
2022/11/05 03:19:07;;;;;;;7.35;2.60;;;9.00;99.90;;;8.22;100.00;101627.16;4086779;29;20094;-85
2022/11/05 03:21:22;;;;;;;6.70;3.08;;;9.10;99.90;;;8.24;100.00;101630.53;4086792;29;20097;-85
2022/11/05 03:23:29;;;;;;;6.78;2.20;;;9.00;99.90;;;8.26;100.00;101633.88;4086732;29;20040;-85
2022/11/05 03:25:36;;;;;;;5.32;2.05;;;9.10;99.90;;;8.29;100.00;101636.28;4070708;29;20028;-84
2022/11/05 03:27:44;;;;;;;7.05;2.80;;;9.10;99.90;;;8.31;100.00;101631.72;4087422;29;20024;-84
2022/11/05 03:30:05;;;;;;;5.32;1.80;;;9.10;99.90;;;8.28;100.00;101624.09;4089586;29;20048;-85
2022/11/05 03:32:09;;;;;;;5.63;1.98;;;9.10;99.90;;;8.26;100.00;101623.34;4089109;29;20032;-85
2022/11/05 03:34:15;;;;;;;5.63;2.13;;;9.20;99.90;;;8.27;100.00;101619.78;4089467;29;20035;-84
2022/11/05 03:36:24;;;;;;;6.25;1.95;;;9.20;99.90;;;8.32;100.00;101620.28;4089565;29;20038;-85
2022/11/05 03:38:31;;;;;;;9.80;2.67;;;9.20;99.90;;;8.34;100.00;101626.25;4089388;29;20490;-85
2022/11/05 03:40:35;;;;;;;4.13;1.88;;;9.20;99.90;;;8.35;100.00;101620.03;4104874;29;20035;-85
2022/11/05 03:42:41;;;;;;;5.05;2.22;;;9.20;99.90;;;8.37;100.00;101619.91;4104991;29;20038;-85
2022/11/05 03:44:50;;;;;;;7.78;2.53;;;9.20;99.90;;;8.38;100.00;101622.44;4104674;29;20035;-85
2022/11/05 03:46:58;;;;;;;9.13;2.17;;;9.20;99.90;;;8.36;100.00;101611.19;4101915;29;20023;-84
2022/11/05 03:49:02;;;;;;;7.65;2.30;;;9.20;99.90;;;8.39;100.00;101613.59;4088928;29;20067;-85
2022/11/05 03:51:21;;;;;;;5.55;1.85;;;9.30;99.90;;;8.47;100.00;101620.88;4073150;29;20043;-85
2022/11/05 03:53:28;;;;;;;5.00;1.90;;;9.30;99.90;;;8.38;100.00;101605.81;4074513;29;20083;-85
2022/11/05 03:55:37;;;;;;;5.07;2.00;;;9.30;99.90;;;8.45;100.00;101618.38;4057530;29;20021;-84
2022/11/05 03:57:42;;;;;;;8.25;2.38;;;9.30;99.90;;;8.48;100.00;101612.88;4088921;29;20031;-85
2022/11/05 03:59:46;;;;;;;7.22;2.22;;;9.30;99.90;;;8.46;100.00;101608.66;4100427;28;20019;-85
2022/11/05 04:01:48;;;;;;;5.40;1.63;;;9.30;99.90;;;8.47;100.00;101612.97;4088573;29;20032;-85
2022/11/05 04:03:49;;;;;;;4.88;1.80;;;9.40;99.90;;;8.48;100.00;101615.50;4104722;29;20031;-85
2022/11/05 04:13:22;;;;;;;5.63;1.90;;;9.30;99.90;;;8.45;100.00;101607.00;4090128;29;20028;-85
2022/11/05 04:15:09;;;;;;;4.28;1.70;;;9.40;99.90;;;8.57;100.00;101613.94;4090176;29;20042;-85
2022/11/05 04:17:10;;;;;;;4.60;2.13;;;9.50;99.90;;;8.53;100.00;101601.97;4089673;29;20403;-85
2022/11/05 04:19:11;;;;;;;5.65;1.83;;;9.40;99.90;;;8.54;100.00;101607.09;4072730;29;20032;-85
2022/11/05 04:25:51;;;;;;;4.85;1.45;;;9.40;99.90;;;8.53;100.00;101610.69;4102166;29;20149;-85
2022/11/05 04:27:52;;;;;;;5.63;1.83;;;9.40;99.90;;;8.51;100.00;101612.59;4090004;29;20106;-85
2022/11/05 04:32:12;;;;;;;5.05;2.50;;;9.40;99.90;;;8.48;100.00;101612.03;4089606;29;20095;-84
2022/11/05 04:34:15;;;;;;;7.20;2.20;;;9.40;99.90;;;8.49;100.00;101613.69;4104428;29;20510;-85
2022/11/05 04:36:15;;;;;;;5.40;2.28;;;9.40;99.90;;;8.45;100.00;101597.34;4088595;29;20050;-85
2022/11/05 04:38:18;;;;;;;7.53;2.88;;;9.40;99.90;;;8.49;100.00;101609.25;4103983;28;20039;-85
2022/11/05 04:40:19;;;;;;;5.85;2.40;;;9.40;99.90;;;8.57;100.00;101621.81;4103159;29;20499;-84
2022/11/05 04:42:20;;;;;;;11.95;2.40;;;9.40;99.90;;;8.55;100.00;101614.03;4089596;29;20042;-85
2022/11/05 04:44:21;;;;;;;6.68;2.25;;;9.40;99.90;;;8.58;100.00;101613.78;4103933;29;20495;-85
2022/11/05 04:46:22;;;;;;;5.53;3.10;;;9.40;99.90;;;8.55;100.00;101608.78;4089273;29;20034;-85
2022/11/05 04:48:23;;;;;;;5.85;2.53;;;9.40;99.90;;;8.58;100.00;101613.78;4089062;29;20020;-85
2022/11/05 04:50:24;;;;;;;8.10;2.97;;;9.50;99.90;;;8.58;100.00;101607.69;4088342;29;20035;-85
2022/11/05 04:52:24;;;;;;;5.95;2.50;;;9.50;99.90;;;8.57;100.00;101608.66;4072454;29;20043;-85
2022/11/05 04:54:25;;;;;;;5.00;2.47;;;9.50;99.90;;;8.58;100.00;101610.31;4088068;29;20023;-85
2022/11/05 04:56:26;;;;;;;8.60;3.22;;;9.50;99.90;;;8.55;100.00;101600.88;4072253;29;20029;-85
2022/11/05 04:58:27;;;;;;;6.72;3.40;;;9.50;99.90;;;8.60;100.00;101617.13;4089344;29;20032;-86
2022/11/05 05:00:28;;;;;;;5.85;3.17;;;9.50;99.90;;;8.57;100.00;101606.84;4089127;29;20511;-85
2022/11/05 05:02:29;;;;;;;6.50;2.78;;;9.50;99.90;;;8.60;100.00;101617.13;4088949;29;20385;-85
2022/11/05 05:04:29;;;;;;;9.27;3.80;;;9.50;99.90;;;8.58;100.00;101613.78;4089007;29;20039;-84
2022/11/05 05:06:30;;;;;;;10.80;3.33;;;9.40;99.90;;;8.56;100.00;101620.13;4089213;29;20026;-85
2022/11/05 05:08:31;;;;;;;8.70;2.85;;;9.50;99.90;;;8.56;100.00;101617.50;4088133;29;20023;-85
2022/11/05 05:10:32;;;;;;;4.53;2.70;;;9.50;99.90;;;8.60;100.00;101622.38;4087973;29;20028;-85
2022/11/05 05:12:33;;;;;;;9.43;3.50;;;9.50;99.90;;;8.58;100.00;101628.72;4089004;29;20412;-84
2022/11/05 05:14:34;;;;;;;4.75;2.83;;;9.40;99.90;;;8.53;100.00;101620.38;4088132;29;20032;-85
2022/11/05 05:16:35;;;;;;;5.47;2.90;;;9.50;99.90;;;8.54;100.00;101624.69;4088426;29;20030;-85
2022/11/05 05:18:36;;;;;;;9.80;3.00;;;9.40;99.90;;;8.51;100.00;101606.53;4089634;29;20031;-86
2022/11/05 05:22:56;;;;;;;7.75;3.72;;;9.40;99.90;;;8.51;100.00;101611.78;4101338;29;20042;-86
2022/11/05 05:24:58;;;;;;;6.15;3.40;;;9.40;99.90;;;8.58;100.00;101624.31;4071891;29;20020;-85
2022/11/05 05:27:00;;;;;;;6.28;2.92;;;9.40;99.90;;;8.58;100.00;101619.06;4071913;29;20100;-85
2022/11/05 05:29:01;;;;;;;8.13;3.00;;;9.40;99.90;;;8.55;100.00;101603.50;4088664;29;20027;-85
2022/11/05 05:31:02;;;;;;;6.97;3.38;;;9.50;99.90;;;8.61;100.00;101612.72;4088654;29;20044;-85
2022/11/05 05:33:03;;;;;;;5.63;3.10;;;9.50;99.90;;;8.64;100.00;101621.19;4088652;29;20056;-86
2022/11/05 05:35:04;;;;;;;9.15;3.58;;;9.50;99.90;;;8.62;100.00;101607.34;4088862;29;20034;-86
2022/11/05 05:37:05;;;;;;;6.78;3.35;;;9.50;99.90;;;8.66;100.00;101619.28;4088607;29;20056;-86
2022/11/05 05:39:09;;;;;;;7.35;3.00;;;9.50;99.90;;;8.66;100.00;101621.91;4088779;29;20034;-86
2022/11/05 05:41:10;;;;;;;6.90;3.63;;;9.50;99.90;;;8.69;100.00;101623.47;4087547;29;20079;-86
2022/11/05 05:43:11;;;;;;;7.65;3.63;;;9.60;99.90;;;8.68;100.00;101617.38;4088577;29;20411;-85
2022/11/05 05:45:12;;;;;;;7.28;3.78;;;9.60;99.90;;;8.69;100.00;101621.66;4089372;29;20027;-85
2022/11/05 05:47:13;;;;;;;7.30;3.38;;;9.60;99.90;;;8.67;100.00;101623.59;4088452;29;20024;-86
2022/11/05 05:49:14;;;;;;;7.93;4.18;;;9.60;99.90;;;8.71;100.00;101625.03;4088535;29;20023;-85
2022/11/05 05:51:15;;;;;;;7.75;3.60;;;9.60;99.90;;;8.72;100.00;101629.31;4086972;29;20427;-85
2022/11/05 05:53:16;;;;;;;7.40;3.63;;;9.60;99.90;;;8.73;100.00;101630.16;4088385;29;20016;-86
2022/11/05 05:55:17;;;;;;;8.88;4.13;;;9.60;99.90;;;8.67;100.00;101612.22;4087228;29;20100;-85
2022/11/05 05:57:18;;;;;;;10.73;4.70;;;9.60;99.90;;;8.68;100.00;101627.06;4088529;29;20039;-86
2022/11/05 05:59:18;;;;;;;9.43;4.63;;;9.60;99.90;;;8.71;100.00;101624.19;4087289;29;20499;-86
2022/11/05 06:01:20;;;;;;;8.35;3.20;;;9.60;99.90;;;8.71;100.00;101619.75;4088052;29;20424;-86
2022/11/05 06:03:21;;;;;;;10.05;3.75;;;9.60;99.90;;;8.73;100.00;101623.09;4104298;28;20043;-85
2022/11/05 06:05:22;;;;;;;8.63;4.63;;;9.60;99.90;;;8.66;100.00;101616.63;4088431;29;20024;-86
2022/11/05 06:07:22;;;;;;;9.35;4.38;;;9.60;99.90;;;8.70;100.00;101625.97;4103048;29;20039;-85
2022/11/05 06:09:23;;;;;;;12.07;5.00;;;9.60;99.90;;;8.72;100.00;101623.22;4088351;29;20495;-85
2022/11/05 06:11:25;;;;;;;8.80;4.32;;;9.60;99.90;;;8.66;100.00;101619.28;4103190;29;20023;-85
2022/11/05 06:13:26;;;;;;;8.25;4.32;;;9.60;99.90;;;8.65;100.00;101619.41;4103125;29;20027;-85
2022/11/05 06:15:28;;;;;;;12.40;4.68;;;9.60;99.90;;;8.66;100.00;101624.53;4102873;29;20098;-85
2022/11/05 06:17:28;;;;;;;10.68;3.90;;;9.60;99.90;;;8.67;100.00;101630.63;4088113;29;20447;-85
2022/11/05 06:19:29;;;;;;;10.02;4.13;;;9.50;99.90;;;8.63;100.00;101624.78;4088303;29;20039;-85
2022/11/05 06:21:30;;;;;;;8.15;5.03;;;9.50;99.90;;;8.63;100.00;101629.22;4088289;29;20484;-85
2022/11/05 06:23:33;;;;;;;10.38;4.53;;;9.50;99.90;;;8.61;100.00;101625.84;4102920;29;20038;-86
2022/11/05 06:25:34;;;;;;;6.45;4.10;;;9.50;99.90;;;8.63;100.00;101632.66;4086821;29;20051;-85
2022/11/05 06:27:35;;;;;;;10.18;4.28;;;9.50;99.90;;;8.66;100.00;101631.59;4088247;29;20023;-85
2022/11/05 06:29:36;;;;;;;6.82;4.10;;;9.50;99.90;;;8.61;100.00;101613.56;4088005;29;20385;-85
2022/11/05 06:31:37;;;;;;;11.20;4.90;;;9.50;99.90;;;8.68;100.00;101630.53;4087825;29;20067;-85
2022/11/05 06:33:39;;;;;;;7.53;4.35;;;9.50;99.90;;;8.66;100.00;101619.28;4071116;29;20032;-85
2022/11/05 06:35:40;;;;;;;8.15;4.30;;;9.50;99.90;;;8.66;100.00;101627.16;4074362;29;20040;-85
2022/11/05 06:37:41;;;;;;;7.95;4.13;;;9.50;99.90;;;8.62;100.00;101609.13;4070891;29;20024;-85
2022/11/05 06:39:42;;;;;;;9.40;4.18;;;9.50;99.90;;;8.65;100.00;101614.16;4102628;29;20063;-85
2022/11/05 06:41:43;;;;;;;8.30;4.18;;;9.50;99.90;;;8.68;100.00;101622.63;4086852;29;20023;-85
2022/11/05 06:43:44;;;;;;;9.98;3.92;;;9.60;99.90;;;8.68;100.00;101620.00;4088063;29;20095;-84
2022/11/05 06:45:45;;;;;;;7.47;4.40;;;9.50;99.90;;;8.66;100.00;101616.63;4088381;29;20027;-85
2022/11/05 06:47:46;;;;;;;9.88;4.57;;;9.50;99.90;;;8.69;100.00;101620.84;4070152;29;20028;-85
2022/11/05 06:49:47;;;;;;;7.55;4.18;;;9.50;99.90;;;8.69;100.00;101626.09;4087646;29;20019;-85
2022/11/05 06:51:48;;;;;;;9.13;3.95;;;9.60;99.90;;;8.70;100.00;101619.88;4087540;29;20042;-84
2022/11/05 06:53:49;;;;;;;8.60;4.20;;;9.60;99.90;;;8.73;100.00;101622.25;4087926;29;20055;-85
2022/11/05 06:55:49;;;;;;;10.10;4.82;;;9.60;99.90;;;8.76;100.00;101622.84;4088063;29;20036;-85
2022/11/05 06:57:50;;;;;;;8.20;4.07;;;9.60;99.90;;;8.78;100.00;101620.91;4087964;29;20414;-85
2022/11/05 06:59:51;;;;;;;11.90;4.15;;;9.60;99.90;;;8.77;100.00;101611.38;4087816;29;20115;-85
2022/11/05 07:01:52;;;;;;;9.38;4.38;;;9.70;99.90;;;8.81;100.00;101620.66;4070831;29;20043;-85
2022/11/05 07:03:53;;;;;;;10.10;4.00;;;9.70;99.90;;;8.83;100.00;101610.88;4090592;29;20464;-84
2022/11/05 07:05:55;;;;;;;13.55;5.00;;;9.70;99.90;;;8.84;100.00;101617.00;4105629;29;20083;-85
2022/11/05 07:07:56;;;;;;;11.50;3.75;;;9.70;99.90;;;8.85;100.00;101611.59;4073684;29;20473;-85
2022/11/05 07:09:57;;;;;;;13.05;5.22;;;9.70;99.90;;;8.89;100.00;101618.28;4105519;29;20026;-84
2022/11/05 07:11:58;;;;;;;11.27;4.15;;;9.70;99.90;;;8.90;100.00;101616.47;4090997;29;20507;-85
2022/11/05 07:14:00;;;;;;;9.52;4.32;;;9.80;99.90;;;8.92;100.00;101616.34;4090952;29;20035;-86
2022/11/05 07:16:00;;;;;;;7.65;4.10;;;9.80;99.90;;;8.99;100.00;101614.91;4090723;29;20031;-85
2022/11/05 07:18:02;;;;;;;7.90;4.30;;;9.80;99.90;;;9.04;100.00;101621.47;4090896;29;20563;-85
2022/11/05 07:20:05;;;;;;;11.25;3.85;;;9.90;99.90;;;9.08;100.00;101619.44;4092693;29;20035;-85
2022/11/05 07:22:06;;;;;;;11.98;4.15;;;9.90;99.90;;;9.06;100.00;101613.44;4073881;29;20067;-86
2022/11/05 07:24:07;;;;;;;7.15;3.63;;;10.00;99.90;;;9.13;100.00;101622.50;4090509;29;20036;-85
2022/11/05 07:26:08;;;;;;;6.68;3.80;;;10.00;99.90;;;9.18;100.00;101615.06;4089614;29;20024;-86
2022/11/05 07:28:10;;;;;;;8.38;3.30;;;10.10;99.90;;;9.20;100.00;101616.59;4092306;29;20114;-82
2022/11/05 07:30:11;;;;;;;9.60;4.38;;;10.00;99.90;;;9.24;100.00;101627.72;4104702;29;20047;-80
2022/11/05 07:32:12;;;;;;;10.00;4.25;;;10.10;99.90;;;9.23;100.00;101620.78;4087921;29;20039;-83
2022/11/05 07:34:13;;;;;;;5.85;3.90;;;10.10;99.90;;;9.26;100.00;101621.38;4104917;29;20651;-83
2022/11/05 07:36:14;;;;;;;11.35;4.22;;;10.10;99.90;;;9.36;100.00;101616.19;4104686;29;20039;-84
2022/11/05 07:38:15;;;;;;;7.93;3.80;;;10.10;99.90;;;9.27;100.00;101606.41;4092865;29;20023;-83
2022/11/05 07:40:20;;;;;;;8.73;3.53;;;10.10;99.90;;;9.26;100.00;101604.72;4089094;29;20090;-84
2022/11/05 07:42:21;;;;;;;12.07;4.03;;;10.10;99.90;;;9.27;100.00;101611.69;4088307;29;20032;-83
2022/11/05 07:44:22;;;;;;;7.40;3.60;;;10.10;99.90;;;9.29;100.00;101604.47;4090368;29;20039;-82
2022/11/05 07:46:23;;;;;;;6.93;3.60;;;10.20;99.90;;;9.39;100.00;101614.13;4103972;28;20034;-83
2022/11/05 07:48:24;;;;;;;10.50;4.38;;;10.20;99.90;;;9.46;100.00;101603.94;4088925;29;20024;-83
2022/11/05 07:50:29;;;;;;;12.05;4.32;;;10.30;99.90;;;9.56;100.00;101609.28;4104849;29;20039;-83
2022/11/05 07:52:33;;;;;;;8.10;4.00;;;10.40;99.90;;;9.66;100.00;101597.84;4100375;29;20503;-83
2022/11/05 07:54:34;;;;;;;12.40;4.65;;;10.50;99.90;;;9.80;100.00;101601.91;4104967;29;20106;-83
2022/11/05 07:56:35;;;;;;;13.85;5.30;;;10.50;99.90;;;9.85;100.00;101602.38;4090158;29;20040;-83
2022/11/05 07:58:37;;;;;;;11.55;4.78;;;10.70;99.90;;;9.99;100.00;101613.41;4104669;29;20118;-83
2022/11/05 08:00:37;;;;;;;10.57;4.28;;;10.70;99.90;;;10.10;100.00;101606.38;4090226;29;20111;-83
2022/11/05 08:02:39;;;;;;;7.60;3.53;;;10.90;99.90;;;10.18;100.00;101598.69;4089838;29;20023;-83
2022/11/05 08:04:41;;;;;;;22.48;11.68;;;10.90;99.90;;;10.26;100.00;101597.06;4104510;29;20043;-83
2022/11/05 08:06:42;;;;;;;21.10;11.82;;;11.00;99.90;;;10.31;100.00;101594.00;4090193;29;20023;-83
2022/11/05 08:08:43;;;;;;;51.38;25.13;;;11.10;99.90;;;10.30;100.00;101600.28;4107093;28;20034;-83
2022/11/05 08:10:44;;;;;;;37.40;18.42;;;11.10;99.90;;;10.18;100.00;101594.25;4072962;29;20024;-83
2022/11/05 08:12:45;;;;;;;27.95;16.02;;;11.00;99.90;;;10.14;100.00;101603.38;4104590;29;20102;-83
2022/11/05 08:14:46;;;;;;;49.28;25.20;;;11.00;99.90;;;9.98;100.00;101598.56;4072657;29;20039;-84
2022/11/05 08:16:46;;;;;;;46.63;24.35;;;10.90;99.90;;;9.84;100.00;101591.00;4088428;29;20415;-83
2022/11/05 08:18:48;;;;;;;48.75;24.20;;;10.80;99.90;;;9.91;100.00;101600.06;4090023;29;20024;-84
2022/11/05 08:20:49;;;;;;;26.30;14.52;;;10.70;99.90;;;9.91;100.00;101599.22;4072938;29;20123;-84
2022/11/05 08:22:49;;;;;;;17.25;6.95;;;10.70;99.90;;;9.94;100.00;101601.59;4104973;29;20035;-84
2022/11/05 08:24:50;;;;;;;10.60;4.05;;;10.70;99.90;;;9.97;100.00;101582.91;4087940;29;20031;-81
2022/11/05 08:26:52;;;;;;;10.88;3.95;;;10.80;99.90;;;10.05;100.00;101584.84;4088757;29;20023;-79
2022/11/05 08:28:53;;;;;;;8.07;3.83;;;10.80;99.90;;;10.14;100.00;101590.22;4086959;29;20036;-81
2022/11/05 08:30:55;;;;;;;7.90;3.42;;;10.90;99.90;;;10.12;100.00;101581.56;4087019;29;20170;-79
2022/11/05 08:33:03;;;;;;;12.57;3.92;;;10.80;99.90;;;10.05;100.00;101590.97;4088960;28;20019;-84
2022/11/05 08:35:05;;;;;;;10.40;5.13;;;10.80;99.90;;;9.97;100.00;101586.34;4072652;29;20031;-83
2022/11/05 08:37:05;;;;;;;20.17;11.27;;;10.80;99.90;;;9.93;100.00;101587.59;4089534;29;20039;-83
2022/11/05 08:39:06;;;;;;;39.42;19.90;;;10.80;99.90;;;9.91;100.00;101584.25;4088401;29;20087;-86
2022/11/05 08:41:07;;;;;;;18.38;9.07;;;10.80;99.90;;;10.05;100.00;101587.50;4096571;29;20028;-84
2022/11/05 08:43:11;;;;;;;19.10;10.30;;;10.90;99.90;;;10.20;100.00;101602.03;4087673;29;20525;-84
2022/11/05 08:45:12;;;;;;;18.15;10.40;;;11.00;99.90;;;10.43;100.00;101599.06;4088537;29;20118;-84
2022/11/05 08:47:13;;;;;;;12.27;5.10;;;11.20;99.90;;;10.62;100.00;101592.16;4088713;29;20036;-84
2022/11/05 08:49:13;;;;;;;14.65;9.30;;;11.40;99.90;;;10.76;100.00;101595.25;4087608;29;20066;-84
2022/11/05 08:51:14;;;;;;;13.82;7.35;;;11.50;99.90;;;10.83;100.00;101591.09;4088973;29;20059;-84
2022/11/05 08:53:16;;;;;;;11.65;6.95;;;11.60;99.90;;;10.85;100.00;101578.59;4089269;29;20019;-81
2022/11/05 08:55:17;;;;;;;17.02;9.63;;;11.70;99.90;;;10.88;100.00;101583.59;4088162;29;20036;-79
2022/11/05 08:57:18;;;;;;;9.85;4.63;;;11.70;99.90;;;10.93;100.00;101584.00;4088058;29;20024;-79
2022/11/05 08:59:19;;;;;;;7.20;3.05;;;11.70;99.90;;;11.05;100.00;101584.75;4089361;29;20036;-79
2022/11/05 09:01:20;;;;;;;8.38;2.83;;;11.90;99.90;;;11.21;100.00;101576.25;4088995;29;20100;-79
2022/11/05 09:03:21;;;;;;;7.65;2.38;;;12.00;99.90;;;11.34;100.00;101571.50;4089213;29;20091;-79
2022/11/05 09:05:22;;;;;;;9.52;3.85;;;12.10;99.90;;;11.43;100.00;101573.31;4088940;29;20023;-80
2022/11/05 09:07:23;;;;;;;9.27;3.05;;;12.30;99.90;;;11.57;100.00;101584.28;4089042;29;20046;-79
2022/11/05 09:09:24;;;;;;;10.25;3.70;;;12.40;99.90;;;11.63;100.00;101565.19;4088899;29;20024;-79
2022/11/05 09:11:25;;;;;;;7.38;2.90;;;12.50;99.90;;;11.72;100.00;101555.63;4088755;29;20039;-79
2022/11/05 09:13:26;;;;;;;7.75;3.05;;;12.60;99.90;;;11.91;100.00;101557.38;4087738;29;20027;-79
2022/11/05 09:15:28;;;;;;;10.55;3.00;;;12.70;99.90;;;11.93;100.00;101556.25;4088991;29;20031;-79
2022/11/05 09:17:29;;;;;;;14.13;2.63;;;12.70;99.90;;;12.02;100.00;101562.47;4089842;29;20038;-79